createdAt,value
2019-03-12T00:01:17.879Z,14.80
2019-03-12T00:03:49.230Z,17.83
2019-03-12T00:06:20.630Z,16.17
2019-03-12T00:08:51.884Z,19.40
2019-03-12T00:11:23.110Z,16.30
2019-03-12T00:13:54.397Z,14.43
2019-03-12T00:16:25.602Z,15.83
2019-03-12T00:18:56.848Z,15.70
2019-03-12T00:21:28.154Z,17.97
2019-03-12T00:23:59.447Z,14.20
2019-03-12T00:26:30.955Z,13.57
2019-03-12T00:29:02.224Z,12.33
2019-03-12T00:31:33.612Z,12.30
2019-03-12T00:34:04.889Z,12.37
2019-03-12T00:36:36.164Z,13.73
2019-03-12T00:39:07.600Z,11.90
2019-03-12T00:41:40.431Z,14.17
2019-03-12T00:44:11.761Z,9.30
2019-03-12T00:46:43.097Z,11.47
2019-03-12T00:49:14.570Z,15.33
2019-03-12T00:51:45.786Z,10.90
2019-03-12T00:54:17.036Z,13.33
2019-03-12T00:56:48.232Z,14.57
2019-03-12T00:59:20.544Z,12.50
2019-03-12T01:01:51.853Z,12.27
2019-03-12T01:04:23.186Z,12.73
2019-03-12T01:06:54.451Z,10.13
2019-03-12T01:09:25.695Z,12.63
2019-03-12T01:11:56.959Z,12.70
2019-03-12T01:14:28.216Z,17.20
2019-03-12T01:16:59.472Z,14.83
2019-03-12T01:19:30.719Z,11.10
2019-03-12T01:22:01.965Z,11.93
2019-03-12T01:24:33.357Z,12.00
2019-03-12T01:27:07.510Z,13.83
2019-03-12T01:29:40.068Z,14.53
2019-03-12T01:32:12.802Z,15.03
2019-03-12T01:34:44.081Z,13.27
2019-03-12T01:37:15.585Z,13.67
2019-03-12T01:39:49.288Z,21.17
2019-03-12T01:42:21.853Z,16.03
2019-03-12T01:44:53.437Z,17.90
2019-03-12T01:47:25.017Z,11.83
2019-03-12T01:49:56.265Z,13.07
2019-03-12T01:52:27.921Z,14.53
2019-03-12T01:54:59.270Z,14.10
2019-03-12T01:57:30.576Z,13.33
2019-03-12T02:00:01.947Z,17.20
2019-03-12T02:02:33.564Z,22.17
2019-03-12T02:05:04.902Z,18.43
2019-03-12T02:07:36.123Z,15.70
2019-03-12T02:10:07.850Z,10.97
2019-03-12T02:12:39.163Z,12.70
2019-03-12T02:15:14.953Z,18.30
2019-03-12T02:17:57.051Z,14.43
2019-03-12T02:20:31.737Z,12.10
2019-03-12T02:23:02.987Z,15.20
2019-03-12T02:25:34.338Z,17.87
2019-03-12T02:28:05.926Z,16.93
2019-03-12T02:30:37.266Z,14.17
2019-03-12T02:33:09.473Z,17.03
2019-03-12T02:35:40.834Z,12.90
2019-03-12T02:38:12.094Z,13.10
2019-03-12T02:40:43.461Z,18.47
2019-03-12T02:43:14.723Z,12.87
2019-03-12T02:45:45.940Z,18.30
2019-03-12T02:48:17.233Z,15.10
2019-03-12T02:50:48.446Z,15.23
2019-03-12T02:53:19.729Z,22.70
2019-03-12T02:55:51.986Z,19.93
2019-03-12T02:58:23.292Z,15.80
2019-03-12T03:00:55.508Z,18.30
2019-03-12T03:03:26.749Z,17.43
2019-03-12T03:06:17.237Z,15.07
2019-03-12T03:08:48.596Z,16.27
2019-03-12T03:11:19.926Z,16.37
2019-03-12T03:13:51.345Z,13.40
2019-03-12T03:16:24.353Z,17.83
2019-03-12T03:18:55.584Z,16.07
2019-03-12T03:21:26.835Z,18.90
2019-03-12T03:23:58.097Z,15.53
2019-03-12T03:26:30.925Z,19.07
2019-03-12T03:29:02.590Z,18.93
2019-03-12T03:31:33.845Z,20.77
2019-03-12T03:34:05.100Z,23.17
2019-03-12T03:36:36.321Z,22.60
2019-03-12T03:39:07.687Z,24.70
2019-03-12T03:41:39.860Z,21.47
2019-03-12T03:44:11.090Z,23.47
2019-03-12T03:46:42.439Z,19.90
2019-03-12T03:49:13.655Z,20.60
2019-03-12T03:51:44.963Z,27.67
2019-03-12T03:54:16.220Z,21.13
2019-03-12T03:56:49.080Z,20.57
2019-03-12T03:59:20.333Z,19.47
2019-03-12T04:01:51.672Z,20.17
2019-03-12T04:04:22.955Z,18.90
2019-03-12T04:06:54.181Z,20.90
2019-03-12T04:09:25.475Z,21.73
2019-03-12T04:11:56.676Z,19.93
2019-03-12T04:14:28.083Z,22.10
2019-03-12T04:16:59.453Z,23.90
2019-03-12T04:19:30.711Z,19.37
2019-03-12T04:22:01.957Z,19.00
2019-03-12T04:24:33.207Z,22.53
2019-03-12T04:27:04.632Z,22.80
2019-03-12T04:29:35.936Z,21.17
2019-03-12T04:32:07.262Z,16.83
2019-03-12T04:34:40.987Z,17.67
2019-03-12T04:37:12.373Z,18.03
2019-03-12T04:39:43.796Z,17.63
2019-03-12T04:42:15.028Z,18.90
2019-03-12T04:44:46.298Z,17.70
2019-03-12T04:47:17.511Z,18.37
2019-03-12T04:49:48.878Z,19.43
2019-03-12T04:52:20.212Z,19.13
2019-03-12T04:54:51.450Z,11.83
2019-03-12T04:57:23.794Z,17.20
2019-03-12T04:59:55.018Z,13.50
2019-03-12T05:02:26.235Z,15.33
2019-03-12T05:04:57.483Z,14.50
2019-03-12T05:07:28.761Z,18.80
2019-03-12T05:10:00.163Z,15.10
2019-03-12T05:12:32.038Z,17.03
2019-03-12T05:15:03.306Z,14.73
2019-03-12T05:17:36.485Z,13.07
2019-03-12T05:20:10.445Z,12.93
2019-03-12T05:22:41.806Z,12.27
2019-03-12T05:25:14.287Z,12.33
2019-03-12T05:27:45.684Z,13.87
2019-03-12T05:30:17.399Z,15.40
2019-03-12T05:32:48.724Z,13.80
2019-03-12T05:35:20.233Z,13.47
2019-03-12T05:37:51.509Z,12.03
2019-03-12T05:40:32.723Z,9.73
2019-03-12T05:43:08.490Z,10.90
2019-03-12T05:45:39.898Z,12.07
2019-03-12T05:48:11.137Z,11.97
2019-03-12T05:50:42.411Z,10.23
2019-03-12T05:53:14.476Z,9.77
2019-03-12T05:55:45.747Z,9.37
2019-03-12T05:58:17.083Z,10.87
2019-03-12T06:00:48.325Z,9.87
2019-03-12T06:03:19.550Z,13.37
2019-03-12T06:05:51.678Z,9.40
2019-03-12T06:08:22.932Z,8.10
2019-03-12T06:10:54.247Z,8.47
2019-03-12T06:13:25.485Z,9.53
2019-03-12T06:15:56.747Z,15.00
2019-03-12T06:18:29.118Z,10.87
2019-03-12T06:21:00.491Z,8.57
2019-03-12T06:23:31.732Z,9.80
2019-03-12T06:26:02.976Z,12.53
2019-03-12T06:28:34.340Z,9.03
2019-03-12T06:31:22.768Z,12.57
2019-03-12T06:33:58.356Z,11.57
2019-03-12T06:36:43.981Z,9.50
2019-03-12T06:39:25.440Z,9.13
2019-03-12T06:42:10.670Z,8.77
2019-03-12T06:45:13.650Z,7.17
2019-03-12T06:48:09.147Z,10.97
2019-03-12T06:50:47.301Z,6.77
2019-03-12T06:53:46.606Z,11.80
2019-03-12T06:56:33.432Z,6.73
2019-03-12T06:59:21.985Z,8.53
2019-03-12T07:02:14.978Z,9.63
2019-03-12T07:05:21.651Z,7.17
2019-03-12T07:08:09.558Z,8.40
2019-03-12T07:10:58.467Z,8.80
2019-03-12T07:13:47.665Z,11.03
2019-03-12T07:16:39.860Z,7.03
2019-03-12T07:19:22.735Z,5.40
2019-03-12T07:22:22.201Z,5.43
2019-03-12T07:25:18.528Z,9.90
2019-03-12T07:28:17.425Z,8.30
2019-03-12T07:30:58.136Z,5.30
2019-03-12T07:33:38.912Z,6.07
2019-03-12T07:36:24.694Z,4.37
2019-03-12T07:39:12.505Z,4.33
2019-03-12T07:41:54.430Z,7.50
2019-03-12T07:44:50.812Z,7.73
2019-03-12T07:47:36.320Z,5.00
2019-03-12T07:50:19.769Z,7.13
2019-03-12T07:53:08.603Z,4.13
2019-03-12T07:56:01.956Z,5.23
2019-03-12T07:58:46.590Z,3.97
2019-03-12T08:01:52.312Z,6.87
2019-03-12T08:04:45.317Z,3.90
2019-03-12T08:07:36.111Z,4.03
2019-03-12T08:10:22.230Z,3.90
2019-03-12T08:13:06.807Z,4.20
2019-03-12T08:16:01.753Z,4.93
2019-03-12T08:19:04.247Z,3.63
2019-03-12T08:21:44.474Z,6.97
2019-03-12T08:24:33.914Z,5.17
2019-03-12T08:27:13.194Z,4.77
2019-03-12T08:29:55.103Z,3.50
2019-03-12T08:32:57.655Z,5.47
2019-03-12T08:35:47.839Z,4.00
2019-03-12T08:38:27.797Z,3.80
2019-03-12T08:41:24.198Z,4.37
2019-03-12T08:44:06.290Z,4.50
2019-03-12T08:47:06.838Z,4.23
2019-03-12T08:50:03.411Z,4.73
2019-03-12T08:52:52.408Z,4.20
2019-03-12T08:55:51.506Z,4.07
2019-03-12T08:58:40.672Z,3.70
2019-03-12T09:01:26.471Z,8.07
2019-03-12T09:04:04.355Z,4.07
2019-03-12T09:06:43.979Z,5.37
2019-03-12T09:09:27.898Z,4.17
2019-03-12T09:12:30.339Z,5.33
2019-03-12T09:15:28.066Z,4.83
2019-03-12T09:18:18.461Z,7.80
2019-03-12T09:21:08.775Z,4.60
2019-03-12T09:24:02.516Z,5.73
2019-03-12T09:26:41.016Z,4.67
2019-03-12T09:29:40.877Z,5.37
2019-03-12T09:32:33.867Z,6.60
2019-03-12T09:35:21.101Z,5.60
2019-03-12T09:38:17.534Z,8.23
2019-03-12T09:41:09.552Z,6.43
2019-03-12T09:43:59.887Z,4.83
2019-03-12T09:46:38.265Z,3.43
2019-03-12T09:49:40.593Z,6.97
2019-03-12T09:52:18.057Z,3.67
2019-03-12T09:55:08.223Z,3.90
2019-03-12T09:57:56.703Z,4.77
2019-03-12T10:00:50.008Z,3.90
2019-03-12T10:03:55.465Z,3.63
2019-03-12T10:06:51.794Z,4.20
2019-03-12T10:09:42.175Z,3.60
2019-03-12T10:12:32.865Z,5.53
2019-03-12T10:15:23.302Z,3.73
2019-03-12T10:18:16.623Z,6.80
2019-03-12T10:21:09.919Z,3.97
2019-03-12T10:24:15.441Z,5.80
2019-03-12T10:27:08.830Z,6.07
2019-03-12T10:30:01.943Z,3.93
2019-03-12T10:32:41.590Z,6.47
2019-03-12T10:35:41.324Z,4.30
2019-03-12T10:39:00.137Z,7.93
2019-03-12T10:41:40.365Z,9.20
2019-03-12T10:44:34.232Z,7.47
2019-03-12T10:47:12.833Z,6.57
2019-03-12T10:49:44.100Z,6.03
2019-03-12T10:52:15.381Z,8.10
2019-03-12T10:54:46.694Z,7.80
2019-03-12T10:57:17.948Z,5.50
2019-03-12T10:59:49.243Z,5.00
2019-03-12T11:02:20.520Z,4.80
2019-03-12T11:04:51.786Z,9.23
2019-03-12T11:07:23.047Z,4.97
2019-03-12T11:09:54.269Z,7.07
2019-03-12T11:12:25.511Z,10.93
2019-03-12T11:14:56.765Z,11.63
2019-03-12T11:17:28.034Z,6.00
2019-03-12T11:19:59.350Z,6.07
2019-03-12T11:22:30.597Z,7.77
2019-03-12T11:25:01.909Z,7.70
2019-03-12T11:27:33.347Z,7.20
2019-03-12T11:30:05.006Z,9.50
2019-03-12T11:32:36.726Z,6.90
2019-03-12T11:35:08.332Z,7.80
2019-03-12T11:37:39.658Z,7.67
2019-03-12T11:40:14.367Z,6.03
2019-03-12T11:42:45.969Z,6.43
2019-03-12T11:45:20.408Z,8.60
2019-03-12T11:47:51.621Z,8.93
2019-03-12T11:50:22.895Z,8.87
2019-03-12T11:52:57.756Z,9.23
2019-03-12T11:55:27.100Z,7.73
2019-03-12T11:57:58.473Z,6.90
2019-03-12T12:00:32.777Z,11.97
2019-03-12T12:03:04.139Z,5.30
2019-03-12T12:05:35.443Z,7.67
2019-03-12T12:08:06.758Z,9.50
2019-03-12T12:10:38.074Z,7.13
2019-03-12T12:13:09.360Z,6.77
2019-03-12T12:15:40.656Z,7.20
2019-03-12T12:18:11.970Z,9.67
2019-03-12T12:20:43.256Z,11.43
2019-03-12T12:23:14.592Z,8.20
2019-03-12T12:25:45.868Z,10.37
2019-03-12T12:28:17.128Z,8.77
2019-03-12T12:30:48.543Z,6.77
2019-03-12T12:33:19.870Z,9.50
2019-03-12T12:35:51.129Z,7.63
2019-03-12T12:38:22.469Z,9.40
2019-03-12T12:40:53.740Z,6.73
2019-03-12T12:43:26.131Z,11.40
2019-03-12T12:45:57.410Z,8.37
2019-03-12T12:48:28.658Z,4.70
2019-03-12T12:51:03.362Z,6.42
2019-03-12T12:53:32.886Z,9.23
2019-03-12T12:56:04.234Z,6.30
2019-03-12T12:58:35.545Z,6.25
2019-03-12T13:01:06.810Z,13.80
2019-03-12T13:03:38.102Z,7.45
2019-03-12T13:06:10.419Z,7.37
2019-03-12T13:08:41.797Z,6.03
2019-03-12T13:11:13.232Z,3.47
2019-03-12T13:13:44.669Z,4.30
2019-03-12T13:16:25.121Z,5.72
2019-03-12T13:18:49.259Z,5.83
2019-03-12T13:21:20.584Z,5.30
2019-03-12T13:23:51.992Z,4.50
2019-03-12T13:26:23.635Z,10.65
2019-03-12T13:28:54.994Z,7.42
2019-03-12T13:31:26.298Z,4.78
2019-03-12T13:33:57.593Z,4.28
2019-03-12T13:36:28.864Z,7.40
2019-03-12T13:39:00.171Z,9.15
2019-03-12T13:41:31.949Z,6.20
2019-03-12T13:44:04.450Z,10.13
2019-03-12T13:46:36.091Z,6.97
2019-03-12T13:49:07.787Z,6.30
2019-03-12T13:51:40.494Z,4.57
2019-03-12T13:54:11.980Z,6.85
2019-03-12T13:56:43.702Z,7.22
2019-03-12T13:59:15.003Z,4.12
2019-03-12T14:01:46.337Z,10.70
2019-03-12T14:04:17.675Z,5.47
2019-03-12T14:06:48.861Z,6.25
2019-03-12T14:09:20.186Z,3.77
2019-03-12T14:11:51.467Z,7.80
2019-03-12T14:14:23.025Z,7.33
2019-03-12T14:16:54.366Z,5.47
2019-03-12T14:19:25.840Z,8.25
2019-03-12T14:21:57.512Z,5.28
2019-03-12T14:24:28.762Z,4.17
2019-03-12T14:27:01.154Z,3.80
2019-03-12T14:29:32.589Z,5.17
2019-03-12T14:32:04.267Z,4.70
2019-03-12T14:34:35.830Z,4.80
2019-03-12T14:37:07.200Z,5.80
2019-03-12T14:39:38.842Z,5.30
2019-03-12T14:42:10.269Z,5.47
2019-03-12T14:44:41.626Z,6.28
2019-03-12T14:47:12.939Z,9.73
2019-03-12T14:49:44.459Z,4.22
2019-03-12T14:52:25.852Z,3.80
2019-03-12T14:54:57.196Z,6.12
2019-03-12T14:57:28.439Z,3.52
2019-03-12T14:59:59.738Z,6.97
2019-03-12T15:02:31.140Z,9.77
2019-03-12T15:05:02.357Z,7.80
2019-03-12T15:07:33.847Z,5.75
2019-03-12T15:10:05.631Z,7.87
2019-03-12T15:12:37.177Z,5.83
2019-03-12T15:15:08.812Z,4.97
2019-03-12T15:17:40.173Z,7.10
2019-03-12T15:20:11.712Z,8.40
2019-03-12T15:22:43.100Z,10.40
2019-03-12T15:25:14.581Z,8.63
2019-03-12T15:27:45.927Z,4.85
2019-03-12T15:30:18.759Z,4.97
2019-03-12T15:32:50.043Z,7.87
2019-03-12T15:35:21.793Z,4.50
2019-03-12T15:37:53.038Z,7.33
2019-03-12T15:40:24.444Z,6.63
2019-03-12T15:42:55.873Z,7.65
2019-03-12T15:45:27.179Z,7.00
2019-03-12T15:47:58.611Z,4.37
2019-03-12T15:50:30.018Z,5.50
2019-03-12T15:53:01.306Z,9.70
2019-03-12T15:55:32.563Z,4.53
2019-03-12T15:58:03.820Z,7.33
2019-03-12T16:00:35.092Z,9.37
2019-03-12T16:03:06.315Z,5.57
2019-03-12T16:05:37.722Z,6.67
2019-03-12T16:08:08.956Z,6.50
2019-03-12T16:10:40.229Z,5.47
2019-03-12T16:13:11.507Z,5.97
2019-03-12T16:15:42.738Z,4.00
2019-03-12T16:18:14.683Z,8.93
2019-03-12T16:20:46.092Z,7.47
2019-03-12T16:23:17.398Z,9.07
2019-03-12T16:25:48.626Z,6.77
2019-03-12T16:28:19.866Z,6.67
2019-03-12T16:30:51.154Z,6.37
2019-03-12T16:33:22.466Z,5.80
2019-03-12T16:35:53.808Z,5.27
2019-03-12T16:38:25.064Z,4.10
2019-03-12T16:40:56.426Z,4.67
2019-03-12T16:43:27.726Z,6.20
2019-03-12T16:45:58.923Z,4.12
2019-03-12T16:48:30.307Z,5.33
2019-03-12T16:51:01.643Z,3.43
2019-03-12T16:53:32.926Z,6.67
2019-03-12T16:56:04.325Z,6.27
2019-03-12T16:58:35.585Z,4.17
2019-03-12T17:01:06.877Z,6.40
2019-03-12T17:03:38.162Z,5.33
2019-03-12T17:06:09.431Z,3.87
2019-03-12T17:08:40.777Z,5.27
2019-03-12T17:11:12.081Z,6.00
2019-03-12T17:13:43.417Z,7.37
2019-03-12T17:16:14.650Z,5.57
2019-03-12T17:18:46.057Z,3.70
2019-03-12T17:21:17.320Z,4.47
2019-03-12T17:23:48.775Z,5.43
2019-03-12T17:26:20.354Z,6.40
2019-03-12T17:28:51.747Z,6.90
2019-03-12T17:31:23.030Z,5.23
2019-03-12T17:33:54.495Z,4.30
2019-03-12T17:36:28.378Z,4.73
2019-03-12T17:38:58.838Z,6.60
2019-03-12T17:41:31.460Z,9.80
2019-03-12T17:44:02.783Z,4.33
2019-03-12T17:46:34.154Z,3.80
2019-03-12T17:49:05.424Z,7.97
2019-03-12T17:51:36.758Z,6.80
2019-03-12T17:54:09.245Z,4.33
2019-03-12T17:56:40.448Z,3.93
2019-03-12T17:59:11.763Z,16.87
2019-03-12T18:01:43.009Z,7.13
2019-03-12T18:04:14.208Z,4.00
2019-03-12T18:06:45.578Z,3.93
2019-03-12T18:09:16.843Z,6.17
2019-03-12T18:11:48.071Z,5.60
2019-03-12T18:14:19.435Z,4.03
2019-03-12T18:16:50.791Z,6.67
2019-03-12T18:19:22.117Z,21.73
2019-03-12T18:21:53.450Z,10.73
2019-03-12T18:24:25.605Z,9.27
2019-03-12T18:26:56.898Z,6.00
2019-03-12T18:29:28.256Z,4.13
2019-03-12T18:31:59.742Z,9.63
2019-03-12T18:34:31.054Z,4.97
2019-03-12T18:37:02.302Z,4.57
2019-03-12T18:39:33.587Z,7.70
2019-03-12T18:42:04.919Z,4.17
2019-03-12T18:44:36.326Z,5.27
2019-03-12T18:47:07.906Z,6.67
2019-03-12T18:49:39.247Z,5.47
2019-03-12T18:52:11.015Z,8.17
2019-03-12T18:54:42.455Z,7.63
2019-03-12T18:57:13.747Z,6.00
2019-03-12T18:59:47.778Z,5.33
2019-03-12T19:02:37.100Z,5.00
2019-03-12T19:05:09.836Z,6.37
2019-03-12T19:07:41.222Z,10.60
2019-03-12T19:10:13.119Z,8.07
2019-03-12T19:12:51.420Z,8.33
2019-03-12T19:15:25.722Z,7.70
2019-03-12T19:17:57.357Z,4.30
2019-03-12T19:20:28.837Z,9.73
2019-03-12T19:23:00.185Z,4.33
2019-03-12T19:25:31.897Z,6.93
2019-03-12T19:28:05.135Z,6.13
2019-03-12T19:30:36.509Z,6.87
2019-03-12T19:33:12.100Z,4.63
2019-03-12T19:35:44.528Z,6.27
2019-03-12T19:38:15.954Z,6.30
2019-03-12T19:40:47.411Z,5.93
2019-03-12T19:43:18.680Z,9.13
2019-03-12T19:45:50.106Z,5.23
2019-03-12T19:48:22.359Z,4.27
2019-03-12T19:50:53.822Z,4.43
2019-03-12T19:53:25.270Z,4.70
2019-03-12T19:55:56.719Z,4.43
2019-03-12T19:58:37.175Z,4.10
2019-03-12T20:01:19.931Z,6.43
2019-03-12T20:03:53.990Z,9.03
2019-03-12T20:06:25.371Z,9.33
2019-03-12T20:08:56.686Z,13.53
2019-03-12T20:12:05.374Z,10.90
2019-03-12T20:15:25.691Z,8.83
2019-03-12T20:18:37.208Z,9.23
2019-03-12T20:21:23.913Z,6.37
2019-03-12T20:24:32.201Z,7.23
2019-03-12T20:27:45.279Z,5.97
2019-03-12T20:31:10.224Z,6.57
2019-03-12T20:34:14.153Z,5.33
2019-03-12T20:37:41.753Z,4.27
2019-03-12T20:40:39.507Z,3.50
2019-03-12T20:43:46.249Z,4.10
2019-03-12T20:47:08.020Z,3.60
2019-03-12T20:50:13.772Z,4.57
2019-03-12T20:53:31.915Z,6.13
2019-03-12T20:56:55.348Z,5.23
2019-03-12T21:00:33.172Z,4.63
2019-03-12T21:03:40.754Z,4.80
2019-03-12T21:06:56.403Z,5.33
2019-03-12T21:10:23.696Z,5.10
2019-03-12T21:13:38.532Z,3.80
2019-03-12T21:16:46.476Z,3.53
2019-03-12T21:20:08.544Z,4.63
2019-03-12T21:23:10.707Z,5.23
2019-03-12T21:26:41.167Z,4.13
2019-03-12T21:29:50.066Z,4.50
2019-03-12T21:32:21.372Z,4.07
2019-03-12T21:34:52.628Z,4.67
2019-03-12T21:37:23.908Z,5.83
2019-03-12T21:39:56.293Z,4.90
2019-03-12T21:42:28.052Z,6.10
2019-03-12T21:44:59.394Z,3.97
2019-03-12T21:47:30.765Z,5.10
2019-03-12T21:50:02.010Z,5.80
2019-03-12T21:52:34.286Z,4.67
2019-03-12T21:55:06.662Z,6.10
2019-03-12T21:57:39.119Z,3.53
2019-03-12T22:00:13.408Z,6.77
2019-03-12T22:02:46.264Z,4.87
2019-03-12T22:05:17.705Z,5.93
2019-03-12T22:07:48.958Z,8.20
2019-03-12T22:10:20.262Z,4.70
2019-03-12T22:12:51.572Z,5.40
2019-03-12T22:15:22.830Z,4.83
2019-03-12T22:17:54.215Z,4.33
2019-03-12T22:20:25.454Z,4.03
2019-03-12T22:23:15.635Z,8.33
2019-03-12T22:25:46.960Z,5.77
2019-03-12T22:28:18.152Z,3.80
2019-03-12T22:30:49.486Z,5.67
2019-03-12T22:33:21.835Z,3.97
2019-03-12T22:35:53.038Z,3.93
2019-03-12T22:38:24.274Z,4.03
2019-03-12T22:40:55.728Z,3.70
2019-03-12T22:43:26.985Z,4.27
2019-03-12T22:45:58.263Z,3.70
2019-03-12T22:48:29.666Z,4.83
2019-03-12T22:51:00.909Z,3.47
2019-03-12T22:53:32.116Z,4.00
2019-03-12T22:56:03.622Z,6.77
2019-03-12T22:58:34.870Z,3.97
2019-03-12T23:01:24.300Z,4.23
2019-03-12T23:04:13.598Z,3.73
2019-03-12T23:07:02.764Z,3.60
2019-03-12T23:09:45.510Z,3.77
2019-03-12T23:12:23.000Z,3.33
2019-03-12T23:14:54.731Z,4.30
2019-03-12T23:17:27.109Z,3.70
2019-03-12T23:19:58.670Z,3.27
2019-03-12T23:22:30.341Z,3.70
2019-03-12T23:25:01.650Z,3.63
2019-03-12T23:27:34.500Z,3.23
2019-03-12T23:30:07.708Z,3.70
2019-03-12T23:32:40.066Z,3.70
2019-03-12T23:35:11.372Z,3.43
2019-03-12T23:37:42.660Z,3.30
2019-03-12T23:40:14.110Z,3.37
2019-03-12T23:42:45.345Z,3.87
2019-03-12T23:45:17.407Z,2.83
2019-03-12T23:47:50.320Z,3.03
2019-03-12T23:50:21.644Z,3.27
2019-03-12T23:52:53.196Z,3.00
2019-03-12T23:55:24.902Z,3.40
2019-03-12T23:57:56.293Z,3.13
